KERO2: Robert S. Kerr Lock & Dam & Reservoir (L&D 15)

Data processed at Mon Apr 23 2018 22:03


All information presented herein is the property of the government of the United States of America and may be revised or deleted at any time without prior notice.
Dissemination of this information without the expressed written consent of the Public Affairs Office, Tulsa District U.S. Army Corps of Engineers is strictly prohibited.
These data are gathered electronically and, as presented, have not undergone any form of quality control. These data are not guaranteed to be valid or correct.
Go to home page.
Go to station list.

Upstream stations:

Downstream station:
Previous Day
Next Day
Current Day
    
SHEF ID:       KERO2     Robert S. Kerr Lock & Dam
STATION TYPE:  NAVIGATION LOCK
Normal Pool:  Bottom =   458.00, Top =   460.00

               PRECIP ELEVATION   STORAGE   TW-ELEV    INFLOW   RELEASE  AIR-TEMP  WIND-DIRWIND-SPEED REL-HUMID SOLAR-RAD   VOLTAGE  BAT-LOAD
                   in        ft     ac-ft        ft       cfs       cfs         F       deg       mph         %      W/m2      volt      volt
              Ccp-Rev   Ccp-Rev   Ccp-Rev   Ccp-Rev  Regi-Rev  Regi-Rev   Ccp-Rev   Ccp-Rev   Ccp-Rev   Ccp-Rev   Ccp-Rev   Ccp-Rev   Ccp-Rev
(US/Central)
04/23 00:00      0.00    459.69    512329    412.10      1982      7900     54.88    255.20      6.75    100.22      0.00     13.81     13.36
04/23 01:00      0.00    459.66    511036    411.42      2525      7900     55.42    253.70      7.42    100.16      0.00     13.84     13.36
04/23 02:00      0.00    459.71    513191    412.26      1895      7900     55.53    260.40      6.77    100.10      0.00     13.83     13.48
04/23 03:00      0.00    459.74    514484    411.78      2791      7900     55.63    278.60      6.23    100.28      0.00     13.81     13.48
04/23 04:00      0.00    459.71    513191    411.97      2970      7900     54.75    316.00      7.30     99.73      0.00     13.81     13.36
04/23 05:00      0.00    459.75    514915    411.90      1856      7900     55.09    307.10      5.38     95.94      0.00     13.81     13.36
04/23 06:00      0.00    459.75    514915    412.70      1508      7900     55.20    306.50      5.08     94.30      0.00     13.81     13.36
04/23 07:00      0.00    459.71    513191    413.80      1508     22400     54.54    286.70      5.51     93.69      1.00     13.82     13.36
04/23 08:00      0.00    459.71    513191    413.74       520     22400     54.54    289.60      8.11     92.33     34.00     13.82     13.36
04/23 09:00      0.00    459.69    512329    414.57       248     22400     55.63    287.60      5.91     89.35    140.00     13.85     13.36
04/23 10:00      0.00    459.69    512329    414.13      -901      -901     55.85    279.70      7.10     92.64    115.00     13.84     13.48
04/23 11:00      0.00    459.67    511467    413.60      -901      -901     57.72    286.40      5.79     87.76    165.00     13.84     13.48
04/23 12:00      0.00    459.64    510174    413.46      -901      -901     62.89    279.30      5.82     84.89    336.00     13.83     13.48
04/23 13:00      0.00    459.59    508019    413.33      -901      -901     61.79    301.50      5.95     79.69    552.00     13.83     13.36
04/23 14:00      0.00    459.63    509743    413.17      -901      -901     64.87    239.40      7.24     73.89    529.00     13.82     13.36
04/23 15:00      0.00    459.66    511036    412.57      -901      -901     70.57    244.00      7.04     57.03    655.00     13.83     13.36
04/23 16:00      0.00    459.65    510605    412.47      -901      -901     72.21    312.50      8.45     46.53    815.00     13.86     13.36
04/23 17:00      0.00    459.67    511467    412.06      -901      -901     71.89    312.30      8.07     44.76    674.00     13.86     13.48
04/23 18:00      0.00    459.67    511467    412.07      -901      -901     72.32    317.20      8.51     39.32    526.00     13.84     13.48
04/23 19:00      0.00    459.54    505864    412.40      -901      -901     72.32    294.80      6.20     43.78    271.00     13.84     13.36
04/23 20:00      0.00    459.59    508019    413.27      -901      -901     68.25    286.00      4.74     51.29     72.00     13.84     13.36
04/23 21:00      0.00    459.56    506726    413.25      -901      -901     66.27    288.00      1.84     52.45      1.00     13.84     13.30
04/23 22:00      ----      ----      ----      ----      ----      ----      ----      ----      ----      ----      ----      ----      ----
04/23 23:00      ----      ----      ----      ----      ----      ----      ----      ----      ----      ----      ----      ----      ----